Time;durP1;ratioP1;P1;durP2;ratioP2;P2;SDS_P1;SDS_P2;PMS_P1;PMS_P2;Temp;Humidity;BMP_temperature;BMP_pressure;BME280_temperature;BME280_humidity;BME280_pressure;Samples;Min_cycle;Max_cycle;Signal;HPM_P1;HPM_P2
2022/11/22 00:00:43;;;;;;;11.50;2.67;;;;;;;12.89;56.11;98994.13;5014130;28;20046;-60
2022/11/22 00:03:10;;;;;;;9.75;2.15;;;;;;;13.01;56.14;98996.69;5014010;28;20514;-59
2022/11/22 00:05:38;;;;;;;10.52;2.50;;;;;;;13.03;55.82;98994.38;5012376;28;20057;-59
2022/11/22 00:08:05;;;;;;;17.25;3.05;;;;;;;13.27;55.60;99000.31;4996520;28;20050;-59
2022/11/22 00:10:33;;;;;;;18.50;2.85;;;;;;;13.52;55.01;98990.41;4997547;28;20525;-58
2022/11/22 00:13:00;;;;;;;11.23;2.30;;;;;;;13.49;54.67;98996.66;5023629;28;20049;-59
2022/11/22 00:15:28;;;;;;;10.40;2.55;;;;;;;13.37;54.50;98987.81;5035011;28;20136;-58
2022/11/22 00:17:55;;;;;;;11.88;2.45;;;;;;;13.39;54.74;98986.25;5035891;28;20058;-60
2022/11/22 00:20:23;;;;;;;10.98;2.38;;;;;;;13.45;54.73;98989.50;5025572;28;20048;-60
2022/11/22 00:22:50;;;;;;;13.38;2.70;;;;;;;13.42;54.77;98982.72;5014328;28;20049;-60
2022/11/22 00:25:17;;;;;;;16.20;2.88;;;;;;;13.41;54.94;98983.09;5013967;28;20058;-59
2022/11/22 00:27:45;;;;;;;13.60;2.10;;;;;;;13.32;55.11;98986.16;5008513;28;20085;-58
2022/11/22 00:30:12;;;;;;;13.18;2.58;;;;;;;13.35;54.97;98968.03;5015667;28;20050;-56
2022/11/22 00:32:39;;;;;;;13.48;2.40;;;;;;;13.20;55.22;98980.84;5034813;28;20045;-59
2022/11/22 00:35:07;;;;;;;11.38;2.78;;;;;;;13.20;55.23;98978.06;4999255;28;20051;-58
2022/11/22 00:37:34;;;;;;;13.70;2.72;;;;;;;13.09;54.99;98977.09;5014792;28;20052;-58
2022/11/22 00:40:05;;;;;;;10.88;2.42;;;;;;;13.36;54.94;98966.84;5015681;28;20057;-58
2022/11/22 00:42:32;;;;;;;9.63;2.40;;;;;;;13.14;55.31;98970.47;5009387;28;20049;-58
2022/11/22 00:44:59;;;;;;;13.88;3.22;;;;;;;13.19;55.25;98975.69;5015579;28;20053;-65
2022/11/22 00:47:27;;;;;;;16.00;2.90;;;;;;;13.27;54.74;98967.13;5015168;28;20062;-65
2022/11/22 00:49:54;;;;;;;13.60;2.85;;;;;;;13.09;55.61;98977.09;4997860;28;20053;-64
2022/11/22 00:52:21;;;;;;;12.57;2.83;;;;;;;13.19;54.78;98970.97;5014263;28;20046;-66
2022/11/22 00:54:49;;;;;;;13.25;2.42;;;;;;;13.04;55.39;98974.66;5015460;28;20406;-65
2022/11/22 00:57:22;;;;;;;9.52;2.40;;;;;;;12.96;55.24;98981.22;5008253;28;20054;-65
2022/11/22 00:59:50;;;;;;;15.20;3.13;;;;;;;13.02;55.11;98973.47;4995750;28;20502;-66
2022/11/22 01:02:17;;;;;;;12.27;2.63;;;;;;;13.07;55.44;98976.72;5011645;28;20540;-65
2022/11/22 01:04:44;;;;;;;11.18;2.45;;;;;;;13.03;55.63;98984.13;5001078;28;20482;-65
2022/11/22 01:07:12;;;;;;;9.68;2.17;;;;;;;13.01;55.58;98996.69;5010380;28;20080;-66
2022/11/22 01:09:39;;;;;;;10.63;2.33;;;;;;;13.09;55.77;98985.41;5015307;28;20049;-66
2022/11/22 01:12:06;;;;;;;11.18;2.05;;;;;;;13.13;55.51;98975.19;5013789;28;20080;-66
2022/11/22 01:14:33;;;;;;;11.20;1.95;;;;;;;13.06;55.25;98982.59;5016165;28;20054;-66
2022/11/22 01:17:01;;;;;;;7.63;1.73;;;;;;;13.18;55.37;98974.88;5034415;28;20053;-65
2022/11/22 01:19:28;;;;;;;9.35;2.00;;;;;;;13.09;55.60;98976.34;5033304;28;20045;-65
2022/11/22 01:21:56;;;;;;;12.48;2.45;;;;;;;13.15;54.99;98970.09;5033719;28;20050;-66
2022/11/22 01:24:23;;;;;;;10.38;2.08;;;;;;;13.18;55.37;98976.88;5048989;28;20049;-66
2022/11/22 01:26:50;;;;;;;11.07;2.92;;;;;;;13.23;54.50;98982.06;5026127;28;20084;-65
2022/11/22 01:29:18;;;;;;;10.32;2.08;;;;;;;13.23;54.81;98960.72;5015101;28;20049;-66
2022/11/22 01:31:45;;;;;;;12.30;2.30;;;;;;;13.03;55.34;98964.78;5027453;28;20050;-67
2022/11/22 01:34:12;;;;;;;9.90;2.25;;;;;;;13.22;54.82;98966.63;5013963;28;20062;-66
2022/11/22 01:36:39;;;;;;;12.10;2.47;;;;;;;13.12;55.08;98975.59;5006662;28;20052;-66
2022/11/22 01:39:07;;;;;;;13.27;2.28;;;;;;;13.23;54.88;98966.25;5015207;28;20064;-66
2022/11/22 01:41:34;;;;;;;7.65;1.73;;;;;;;13.28;54.40;98963.19;5013560;28;20045;-66
2022/11/22 01:44:21;;;;;;;10.23;2.30;;;;;;;13.32;54.54;98957.69;5014844;28;20046;-66
2022/11/22 01:46:52;;;;;;;9.05;2.60;;;;;;;13.40;54.47;98959.41;4996738;28;20057;-66
2022/11/22 01:49:28;;;;;;;11.48;2.30;;;;;;;13.26;54.90;98959.19;5013300;28;20053;-66
2022/11/22 01:52:01;;;;;;;10.65;2.35;;;;;;;13.19;55.27;98954.38;5009079;28;20050;-66
2022/11/22 01:54:32;;;;;;;6.70;1.92;;;;;;;13.24;55.10;98961.53;4993672;28;20054;-66
2022/11/22 01:57:04;;;;;;;10.75;2.45;;;;;;;13.32;55.27;98965.97;5008351;28;20077;-66
2022/11/22 01:59:33;;;;;;;12.80;2.50;;;;;;;13.35;55.09;98965.25;5013533;28;20404;-66
2022/11/22 02:02:00;;;;;;;12.20;2.20;;;;;;;13.43;54.79;98970.50;5012512;28;20057;-66
2022/11/22 02:04:29;;;;;;;12.15;2.30;;;;;;;13.40;54.89;98964.94;5001404;28;20394;-66
2022/11/22 02:07:24;;;;;;;10.18;2.05;;;;;;;13.42;54.89;98979.97;5008268;28;20054;-66
2022/11/22 02:09:52;;;;;;;9.23;1.88;;;;;;;13.32;55.56;98971.50;5026972;28;20058;-66
2022/11/22 02:12:22;;;;;;;9.93;1.90;;;;;;;13.37;55.49;98972.00;4997911;28;20045;-66
2022/11/22 02:14:50;;;;;;;9.05;2.15;;;;;;;13.45;54.69;98959.88;5021398;28;20445;-66
2022/11/22 02:17:18;;;;;;;9.88;2.10;;;;;;;13.43;54.92;98961.41;5036375;28;20396;-66
2022/11/22 02:19:47;;;;;;;7.00;1.58;;;;;;;13.32;55.24;98950.19;5037913;28;20064;-66
2022/11/22 02:22:29;;;;;;;6.93;1.75;;;;;;;13.37;55.30;98944.34;5020999;28;20058;-67
2022/11/22 02:25:19;;;;;;;8.90;2.20;;;;;;;13.42;54.95;98935.72;4998808;28;20541;-67
2022/11/22 02:27:46;;;;;;;9.07;1.48;;;;;;;13.44;55.13;98938.91;5000169;28;20060;-66
2022/11/22 02:30:14;;;;;;;13.02;2.20;;;;;;;13.40;55.20;98951.09;5016492;28;20045;-67
2022/11/22 02:32:41;;;;;;;11.20;2.30;;;;;;;13.32;55.30;98936.38;5000576;28;20179;-67
2022/11/22 02:35:27;;;;;;;8.45;1.88;;;;;;;13.26;55.27;98924.06;5015331;28;20054;-65
2022/11/22 02:38:01;;;;;;;7.45;2.03;;;;;;;13.22;55.71;98927.94;5014984;28;20057;-66
2022/11/22 02:40:31;;;;;;;7.60;1.83;;;;;;;13.31;55.40;98931.22;5016360;28;20053;-67
2022/11/22 02:43:02;;;;;;;7.07;1.63;;;;;;;13.21;55.64;98929.91;5016176;28;20046;-65
2022/11/22 02:45:29;;;;;;;10.05;2.33;;;;;;;13.19;55.84;98926.72;5015907;28;20054;-65
2022/11/22 02:48:07;;;;;;;9.57;1.75;;;;;;;13.21;55.70;98929.13;5017629;28;20058;-65
2022/11/22 02:50:34;;;;;;;9.18;2.05;;;;;;;13.31;55.67;98920.97;5000754;28;20500;-66
2022/11/22 02:53:01;;;;;;;11.75;2.80;;;;;;;13.11;56.04;98918.72;5016900;28;20057;-65
2022/11/22 02:55:28;;;;;;;8.75;1.90;;;;;;;13.03;56.44;98914.25;5015777;28;20433;-64
2022/11/22 02:57:56;;;;;;;10.07;1.63;;;;;;;13.14;56.35;98907.72;5015634;28;20050;-65
2022/11/22 03:00:23;;;;;;;12.02;2.00;;;;;;;13.17;56.04;98911.66;4993900;28;20418;-67
2022/11/22 03:02:50;;;;;;;9.48;1.85;;;;;;;13.19;56.29;98903.81;5017206;28;20054;-65
2022/11/22 03:05:18;;;;;;;8.23;1.90;;;;;;;13.10;56.75;98912.38;4998249;28;20061;-65
2022/11/22 03:07:45;;;;;;;5.72;1.67;;;;;;;13.22;56.40;98905.81;5016185;28;20069;-65
2022/11/22 03:10:12;;;;;;;10.65;1.92;;;;;;;13.33;56.12;98902.03;5016019;28;20049;-65
2022/11/22 03:12:40;;;;;;;9.50;1.92;;;;;;;13.27;55.91;98891.66;5016838;28;20050;-66
2022/11/22 03:15:07;;;;;;;11.45;1.95;;;;;;;13.39;56.27;98886.69;5019832;28;20105;-65
2022/11/22 03:17:34;;;;;;;10.98;1.70;;;;;;;13.08;56.98;98891.78;5036484;28;20473;-66
2022/11/22 03:20:03;;;;;;;7.95;1.65;;;;;;;12.82;57.01;98894.53;5037240;28;20374;-66
2022/11/22 03:22:30;;;;;;;8.05;1.73;;;;;;;13.05;57.17;98900.84;5036022;28;20061;-66
2022/11/22 03:24:58;;;;;;;9.90;1.58;;;;;;;13.25;56.79;98886.50;5028158;28;20057;-66
2022/11/22 03:27:25;;;;;;;8.00;1.58;;;;;;;13.41;56.31;98892.66;5015141;28;20046;-65
2022/11/22 03:29:52;;;;;;;12.75;2.00;;;;;;;13.25;56.41;98894.03;5016676;28;20053;-65
2022/11/22 03:32:19;;;;;;;9.27;1.80;;;;;;;13.41;56.19;98884.34;5016403;28;20053;-65
2022/11/22 03:34:47;;;;;;;14.13;2.05;;;;;;;13.28;56.76;98896.84;5002105;28;20478;-64
2022/11/22 03:37:14;;;;;;;9.02;1.65;;;;;;;13.31;56.77;98890.56;5011510;28;20072;-66
2022/11/22 03:39:41;;;;;;;5.95;1.63;;;;;;;13.21;56.80;98890.41;5017496;28;20073;-65
2022/11/22 03:42:09;;;;;;;9.70;1.70;;;;;;;13.26;56.90;98890.06;5016875;28;20046;-66
2022/11/22 03:44:36;;;;;;;8.20;1.77;;;;;;;13.33;56.76;98893.75;5016559;28;20081;-67
2022/11/22 03:47:03;;;;;;;12.93;2.42;;;;;;;13.38;56.65;98882.34;5016364;28;20046;-65
2022/11/22 03:49:31;;;;;;;8.27;1.75;;;;;;;13.43;56.67;98897.78;5006516;28;20050;-65
2022/11/22 03:51:58;;;;;;;8.63;1.50;;;;;;;13.42;56.37;98885.94;5010668;28;20604;-66
2022/11/22 03:54:26;;;;;;;8.13;1.58;;;;;;;13.32;57.11;98897.66;5013043;28;20417;-66
2022/11/22 03:56:53;;;;;;;9.90;2.03;;;;;;;13.52;56.63;98890.81;5011410;28;20434;-66
2022/11/22 03:59:20;;;;;;;13.02;2.10;;;;;;;13.66;56.31;98894.91;4998660;28;20058;-66
2022/11/22 04:01:47;;;;;;;8.48;1.70;;;;;;;13.63;56.44;98898.44;5015005;28;20038;-66
2022/11/22 04:04:15;;;;;;;9.10;1.50;;;;;;;13.65;56.27;98907.16;5015207;28;20046;-67
2022/11/22 04:06:42;;;;;;;11.45;1.92;;;;;;;13.63;56.54;98890.13;5014762;28;20046;-67
2022/11/22 04:09:10;;;;;;;8.73;1.75;;;;;;;13.66;56.60;98889.38;5015270;28;20053;-66
2022/11/22 04:11:37;;;;;;;7.35;1.35;;;;;;;13.64;56.28;98886.19;5015668;28;20050;-66
2022/11/22 04:16:50;;;;;;;8.52;1.75;;;;;;;13.60;56.35;98885.38;5033722;28;20053;-67
2022/11/22 04:19:17;;;;;;;6.68;1.65;;;;;;;13.51;56.92;98889.19;5027129;28;20046;-65
2022/11/22 04:21:44;;;;;;;7.22;1.20;;;;;;;13.68;56.65;98893.38;5015500;28;20050;-66
2022/11/22 04:26:58;;;;;;;10.35;1.83;;;;;;;13.56;56.75;98869.50;5010175;28;20543;-65
2022/11/22 04:29:25;;;;;;;8.27;1.70;;;;;;;13.63;56.56;98874.34;5015745;28;20042;-65
2022/11/22 04:34:38;;;;;;;7.28;1.60;;;;;;;13.62;56.84;98866.41;5001930;28;20081;-66
2022/11/22 04:37:05;;;;;;;9.50;1.85;;;;;;;13.61;56.90;98849.03;5010073;28;20045;-66
2022/11/22 04:39:33;;;;;;;9.05;1.70;;;;;;;13.76;56.33;98856.28;5015760;28;20104;-65
2022/11/22 04:44:46;;;;;;;8.57;1.50;;;;;;;13.67;56.47;98846.72;5014393;28;20060;-65
2022/11/22 04:47:57;;;;;;;7.43;1.55;;;;;;;13.69;56.27;98838.81;5015159;28;20065;-66
2022/11/22 04:52:52;;;;;;;8.00;1.40;;;;;;;13.53;56.94;98859.19;5012527;28;20057;-65
2022/11/22 04:52:56;;;;;;;8.68;1.50;;;;;;;13.60;56.72;98854.94;5013746;28;20042;-67
2022/11/22 04:55:23;;;;;;;3.85;1.27;;;;;;;13.74;56.59;98853.09;5013255;28;20045;-65
2022/11/22 04:57:51;;;;;;;12.32;1.70;;;;;;;13.63;56.77;98856.94;5015396;28;20050;-65
2022/11/22 05:00:27;;;;;;;9.57;1.55;;;;;;;13.74;56.65;98852.31;5013950;28;20193;-67
2022/11/22 05:02:55;;;;;;;5.28;1.35;;;;;;;13.86;56.64;98861.13;5015320;28;20581;-66
2022/11/22 05:05:23;;;;;;;6.80;1.77;;;;;;;13.84;56.32;98857.97;5014264;28;20045;-68
2022/11/22 05:07:50;;;;;;;5.78;1.65;;;;;;;13.75;56.67;98859.44;5014086;28;20053;-67
2022/11/22 05:10:18;;;;;;;7.63;1.40;;;;;;;13.73;56.62;98854.28;5015088;28;20054;-66
2022/11/22 05:12:52;;;;;;;4.10;1.33;;;;;;;13.85;56.35;98858.75;5015167;28;20053;-67
2022/11/22 05:15:19;;;;;;;7.22;1.38;;;;;;;13.87;56.55;98864.69;5020538;28;20057;-66
2022/11/22 05:17:47;;;;;;;6.90;1.60;;;;;;;13.85;56.30;98859.56;5015223;28;20382;-65
2022/11/22 05:20:14;;;;;;;10.45;1.67;;;;;;;13.80;55.95;98842.50;5015102;28;20517;-66
2022/11/22 05:25:27;;;;;;;7.43;1.88;;;;;;;13.85;56.58;98845.72;5014339;28;20062;-67
2022/11/22 05:27:55;;;;;;;6.50;1.40;;;;;;;13.87;56.85;98850.88;5015079;28;20061;-66
2022/11/22 05:30:22;;;;;;;6.65;1.38;;;;;;;13.93;56.31;98852.91;5016200;28;20050;-66
2022/11/22 05:32:49;;;;;;;6.38;1.35;;;;;;;13.58;57.82;98855.31;5034919;28;20465;-65
2022/11/22 05:35:16;;;;;;;7.43;1.48;;;;;;;13.72;58.09;98854.69;5019060;28;20048;-66
2022/11/22 05:37:44;;;;;;;11.32;1.92;;;;;;;13.87;57.54;98853.63;5013596;28;20060;-66
2022/11/22 05:40:12;;;;;;;5.88;1.30;;;;;;;13.84;57.60;98851.63;5013414;28;20054;-67
2022/11/22 05:42:39;;;;;;;5.40;1.27;;;;;;;13.91;57.56;98857.25;5014683;28;20076;-67
2022/11/22 05:45:07;;;;;;;9.23;2.40;;;;;;;13.75;57.78;98857.47;5014399;28;20054;-66
2022/11/22 05:47:35;;;;;;;5.28;1.33;;;;;;;13.82;58.28;98862.28;5014964;28;20054;-67
2022/11/22 05:50:03;;;;;;;6.55;1.35;;;;;;;13.86;58.14;98863.13;5017131;28;20054;-66
2022/11/22 05:52:30;;;;;;;5.40;1.17;;;;;;;13.59;58.50;98865.19;5016625;28;20668;-67
2022/11/22 05:54:57;;;;;;;5.93;1.50;;;;;;;13.67;58.51;98875.16;5018820;28;20058;-66
2022/11/22 05:57:25;;;;;;;6.47;1.60;;;;;;;13.73;58.57;98873.66;5018272;28;20042;-67
2022/11/22 05:59:53;;;;;;;4.40;1.02;;;;;;;13.62;58.75;98869.97;5017031;28;20054;-68
2022/11/22 06:02:20;;;;;;;9.70;1.42;;;;;;;13.24;59.55;98876.63;5018466;28;20045;-66
2022/11/22 06:04:48;;;;;;;6.18;1.35;;;;;;;13.50;59.64;98873.00;5018396;28;20061;-66
2022/11/22 06:07:15;;;;;;;5.90;0.98;;;;;;;13.49;58.92;98863.13;5016163;28;20075;-66
2022/11/22 06:09:42;;;;;;;3.85;1.00;;;;;;;13.45;59.56;98857.53;5033231;28;20061;-67
2022/11/22 06:12:09;;;;;;;5.55;1.40;;;;;;;13.67;58.99;98863.31;5018124;28;20057;-67
2022/11/22 06:14:37;;;;;;;3.90;0.95;;;;;;;13.76;58.71;98850.75;5019402;28;20061;-67
2022/11/22 06:17:09;;;;;;;6.20;1.42;;;;;;;13.75;58.80;98857.47;5037634;28;20045;-66
2022/11/22 06:19:37;;;;;;;3.50;1.30;;;;;;;13.80;58.32;98845.25;5036588;28;20516;-67
2022/11/22 06:22:05;;;;;;;5.03;1.25;;;;;;;13.68;59.34;98848.28;5030486;28;20058;-65
2022/11/22 06:24:32;;;;;;;4.32;1.30;;;;;;;13.76;59.07;98844.41;4998506;28;20061;-65
2022/11/22 06:26:59;;;;;;;6.93;1.23;;;;;;;13.93;58.32;98854.91;5012812;28;20049;-68
2022/11/22 06:29:26;;;;;;;6.25;1.20;;;;;;;13.84;58.91;98860.75;4983550;28;20058;-66
2022/11/22 06:31:55;;;;;;;6.38;1.30;;;;;;;13.83;59.23;98856.38;5016205;28;20053;-66
2022/11/22 06:34:29;;;;;;;7.30;1.38;;;;;;;13.74;59.04;98861.41;5000819;28;20054;-65
2022/11/22 06:36:56;;;;;;;9.27;1.80;;;;;;;13.94;58.83;98870.31;5009647;28;20050;-66
2022/11/22 06:39:23;;;;;;;8.25;1.55;;;;;;;13.85;58.59;98870.63;4998400;28;20115;-65
2022/11/22 06:41:51;;;;;;;8.43;2.10;;;;;;;13.39;58.21;98872.84;5011437;28;20042;-66
2022/11/22 06:44:18;;;;;;;7.55;1.60;;;;;;;13.69;59.59;98874.78;5017763;28;20061;-66
2022/11/22 06:46:45;;;;;;;5.35;1.52;;;;;;;13.78;59.34;98866.97;5010720;28;20057;-66
2022/11/22 06:49:13;;;;;;;7.60;1.65;;;;;;;13.82;58.94;98862.28;5000049;28;20049;-65
2022/11/22 06:51:41;;;;;;;8.18;1.80;;;;;;;13.92;58.72;98867.13;5017204;28;20525;-66
2022/11/22 06:54:11;;;;;;;10.05;2.00;;;;;;;14.03;58.15;98868.03;5017734;28;20057;-67
2022/11/22 06:56:38;;;;;;;;;;;;;;;14.01;58.50;98871.19;5017700;28;20181;-66
2022/11/22 06:59:06;;;;;;;10.23;3.15;;;;;;;14.00;58.49;98883.41;5017056;28;19929;-66
2022/11/22 07:01:36;;;;;;;6.88;2.53;;;;;;;14.06;58.15;98876.38;5004005;28;20110;-66
2022/11/22 07:04:04;;;;;;;11.68;4.82;;;;;;;13.99;58.02;98872.72;5001922;28;20061;-66
2022/11/22 07:06:33;;;;;;;6.18;1.75;;;;;;;13.98;58.35;98882.22;5013776;28;20061;-66
2022/11/22 07:09:03;;;;;;;9.45;2.17;;;;;;;13.67;58.51;98880.69;5016188;28;20037;-66
2022/11/22 07:11:30;;;;;;;9.30;1.48;;;;;;;14.01;58.88;98887.00;5016430;28;20050;-65
2022/11/22 07:14:00;;;;;;;7.68;1.70;;;;;;;13.87;58.61;98886.84;5017407;28;20054;-66
2022/11/22 07:16:38;;;;;;;12.23;1.80;;;;;;;13.97;58.56;98891.69;5032688;28;20065;-66
2022/11/22 07:19:05;;;;;;;7.68;1.42;;;;;;;14.29;57.61;98890.06;5036904;28;20045;-66
2022/11/22 07:21:33;;;;;;;9.95;1.90;;;;;;;14.15;57.36;98885.16;5012533;28;20050;-66
2022/11/22 07:24:02;;;;;;;10.43;1.60;;;;;;;13.90;58.32;98897.16;5004743;28;20046;-66
2022/11/22 07:26:30;;;;;;;8.57;2.33;;;;;;;14.14;58.04;98897.41;5016339;28;20515;-66
2022/11/22 07:28:57;;;;;;;8.77;2.00;;;;;;;14.00;56.83;98899.25;5004941;28;20049;-65
2022/11/22 07:31:25;;;;;;;8.52;1.60;;;;;;;14.12;57.99;98912.81;5006886;28;20053;-66
2022/11/22 07:33:54;;;;;;;9.23;1.75;;;;;;;13.90;58.05;98911.00;4999136;28;20057;-64
2022/11/22 07:36:22;;;;;;;6.72;1.52;;;;;;;12.64;60.43;98932.16;5014589;28;20049;-65
2022/11/22 07:38:49;;;;;;;6.82;1.60;;;;;;;12.94;61.96;98930.25;5018129;28;20048;-65
2022/11/22 07:41:18;;;;;;;11.80;1.40;;;;;;;12.56;63.48;98936.78;5021403;28;20050;-65
2022/11/22 07:43:45;;;;;;;6.95;1.70;;;;;;;12.72;63.98;98934.66;5012323;28;20046;-67
2022/11/22 07:46:18;;;;;;;7.13;1.40;;;;;;;12.39;64.50;98924.28;5014311;28;20061;-66
2022/11/22 07:48:48;;;;;;;8.48;1.30;;;;;;;12.59;62.97;98924.97;5001231;28;20069;-67
2022/11/22 07:51:15;;;;;;;13.00;1.95;;;;;;;12.59;65.23;98924.19;5010102;28;20378;-67
2022/11/22 07:53:43;;;;;;;5.13;1.25;;;;;;;13.30;62.84;98913.06;5003711;28;20084;-68
2022/11/22 07:56:10;;;;;;;5.70;1.38;;;;;;;13.02;61.71;98929.25;5012643;28;20493;-68
2022/11/22 07:58:37;;;;;;;8.95;1.60;;;;;;;12.74;64.64;98926.00;4999560;28;20410;-67
2022/11/22 08:01:07;;;;;;;11.63;1.40;;;;;;;13.18;62.48;98930.66;5007484;28;20050;-71
2022/11/22 08:03:36;;;;;;;6.22;1.20;;;;;;;12.88;61.64;98934.53;5009480;28;20057;-71
2022/11/22 08:06:05;;;;;;;6.43;1.08;;;;;;;13.07;61.04;98931.69;5006325;28;20054;-70
2022/11/22 08:08:33;;;;;;;4.37;0.90;;;;;;;13.21;60.33;98935.44;5006144;28;20045;-70
2022/11/22 08:11:01;;;;;;;6.00;1.30;;;;;;;13.48;59.36;98930.66;5004316;28;20066;-71
2022/11/22 08:13:28;;;;;;;8.50;2.15;;;;;;;12.80;62.11;98938.31;5006780;28;20050;-66
2022/11/22 08:16:00;;;;;;;9.52;1.60;;;;;;;12.92;62.01;98941.69;5012428;28;20084;-67
2022/11/22 08:18:33;;;;;;;8.43;2.08;;;;;;;13.06;61.43;98936.41;5007503;28;20042;-67
2022/11/22 08:21:03;;;;;;;6.60;1.60;;;;;;;13.21;61.18;98932.69;5008485;28;20093;-67
2022/11/22 08:23:30;;;;;;;6.57;1.47;;;;;;;13.37;60.88;98947.09;5006399;28;20164;-68
2022/11/22 08:25:58;;;;;;;8.35;1.55;;;;;;;13.55;60.69;98934.31;5005215;28;20672;-68
2022/11/22 08:28:25;;;;;;;8.75;2.03;;;;;;;13.75;60.17;98953.53;4998626;28;20042;-67
2022/11/22 08:31:05;;;;;;;8.38;2.17;;;;;;;13.74;59.51;98949.94;5010469;28;20053;-68
2022/11/22 08:33:32;;;;;;;11.50;4.25;;;;;;;13.68;60.06;98937.63;5007417;28;20058;-67
2022/11/22 08:35:59;;;;;;;12.93;3.72;;;;;;;13.69;60.32;98946.72;5007414;28;20062;-67
2022/11/22 08:38:27;;;;;;;12.57;2.20;;;;;;;13.87;59.86;98951.31;5009835;28;20050;-68
2022/11/22 08:40:54;;;;;;;12.82;2.30;;;;;;;13.88;59.93;98949.34;5009195;28;20060;-67
2022/11/22 08:43:24;;;;;;;8.35;2.05;;;;;;;13.87;59.75;98956.03;5012067;28;20050;-68
2022/11/22 08:45:56;;;;;;;11.70;2.13;;;;;;;13.82;60.17;98959.94;5003822;28;20054;-69
2022/11/22 08:48:24;;;;;;;8.25;1.65;;;;;;;13.83;60.38;98960.72;5002936;28;20045;-67
2022/11/22 08:50:54;;;;;;;10.95;2.10;;;;;;;13.94;60.07;98969.97;4996953;28;20054;-68
2022/11/22 08:53:21;;;;;;;10.77;2.23;;;;;;;13.93;60.41;98958.09;5005468;28;20053;-68
2022/11/22 08:55:49;;;;;;;10.80;2.70;;;;;;;13.65;61.13;98951.44;5005267;28;20050;-67
2022/11/22 08:58:16;;;;;;;11.90;2.25;;;;;;;14.09;59.93;98955.09;5006120;28;20493;-68
2022/11/22 09:00:44;;;;;;;11.02;1.95;;;;;;;14.15;59.24;98970.19;5010797;28;20049;-67
2022/11/22 09:03:11;;;;;;;23.50;2.28;;;;;;;14.14;59.05;98968.63;5003482;28;20046;-67
2022/11/22 09:05:38;;;;;;;9.25;1.90;;;;;;;13.64;60.46;98974.72;5014181;28;20073;-67
2022/11/22 09:08:25;;;;;;;15.15;2.95;;;;;;;13.82;61.43;98970.22;5011314;28;20058;-67
2022/11/22 09:11:01;;;;;;;13.27;2.00;;;;;;;14.27;60.30;98953.34;5005570;28;20061;-68
2022/11/22 09:13:29;;;;;;;10.23;1.90;;;;;;;14.42;60.05;98966.16;5009410;28;20038;-68
2022/11/22 09:16:09;;;;;;;12.48;2.22;;;;;;;14.61;58.99;98974.25;5002969;28;20513;-67
2022/11/22 09:18:36;;;;;;;;;;;;;;;14.48;58.75;98972.94;5008573;28;20406;-67
2022/11/22 09:21:09;;;;;;;13.80;3.75;;;;;;;14.51;59.85;98972.16;5011521;28;19922;-68
2022/11/22 09:23:36;;;;;;;14.35;3.28;;;;;;;14.61;59.15;98971.47;4999413;28;20046;-67
2022/11/22 09:26:06;;;;;;;11.38;2.05;;;;;;;14.54;59.21;98980.50;5005155;28;20045;-66
2022/11/22 09:28:34;;;;;;;12.43;2.50;;;;;;;14.48;58.64;98992.34;5007067;28;20505;-66
2022/11/22 09:31:09;;;;;;;12.75;2.55;;;;;;;14.78;59.03;98970.03;5004323;28;20049;-65
2022/11/22 09:33:39;;;;;;;13.95;2.83;;;;;;;14.88;58.12;98967.34;5001527;28;20504;-65
2022/11/22 09:36:27;;;;;;;13.90;2.47;;;;;;;13.93;58.84;98988.53;5012092;28;20049;-66
2022/11/22 09:38:57;;;;;;;15.68;2.90;;;;;;;14.28;60.52;98979.84;4994190;28;20510;-63
2022/11/22 09:41:45;;;;;;;17.35;3.28;;;;;;;14.80;58.79;98982.34;5011269;28;20053;-66
2022/11/22 09:44:23;;;;;;;16.23;3.03;;;;;;;14.55;58.93;98987.66;5007401;28;20545;-65
2022/11/22 09:46:55;;;;;;;15.02;2.75;;;;;;;14.42;59.22;98983.56;5007881;28;20065;-64
2022/11/22 09:49:22;;;;;;;16.85;3.13;;;;;;;14.78;58.63;98984.72;5006318;28;20058;-64
2022/11/22 09:52:06;;;;;;;16.30;2.75;;;;;;;14.66;58.21;98977.47;5000448;28;20053;-66
2022/11/22 09:54:39;;;;;;;16.60;3.83;;;;;;;14.78;58.32;98979.16;5005065;28;20145;-66
2022/11/22 09:57:12;;;;;;;14.98;2.63;;;;;;;15.03;57.09;98971.03;5000635;28;20046;-64
2022/11/22 09:59:42;;;;;;;14.80;3.88;;;;;;;15.18;56.79;98976.31;5001448;28;20057;-66
2022/11/22 10:02:19;;;;;;;15.75;3.22;;;;;;;15.03;57.00;98996.00;5006158;28;20053;-64
2022/11/22 10:04:59;;;;;;;18.70;3.15;;;;;;;14.98;57.40;98982.47;4997798;28;20054;-65
2022/11/22 10:07:29;;;;;;;16.25;3.10;;;;;;;15.11;57.00;99001.22;4991373;28;20058;-63
2022/11/22 10:10:14;;;;;;;16.05;3.38;;;;;;;14.98;56.82;98993.56;5011426;28;20049;-64
2022/11/22 10:13:08;;;;;;;13.32;2.95;;;;;;;15.20;56.10;98993.31;4989873;28;20078;-64
2022/11/22 10:15:38;;;;;;;14.77;2.95;;;;;;;15.45;55.68;98986.00;5000503;28;20077;-64
2022/11/22 10:18:16;;;;;;;14.35;2.95;;;;;;;15.08;56.63;98998.41;4996187;28;20421;-64
2022/11/22 10:20:43;;;;;;;15.13;3.63;;;;;;;15.21;55.98;98997.72;5008216;28;20050;-65
2022/11/22 10:23:25;;;;;;;15.20;2.90;;;;;;;14.82;56.56;99004.91;5004916;28;20038;-65
2022/11/22 10:26:20;;;;;;;18.75;3.63;;;;;;;15.02;56.84;98997.97;5015998;28;20046;-65
2022/11/22 10:29:11;;;;;;;14.25;3.38;;;;;;;15.17;55.94;98996.88;5004415;28;20054;-65
2022/11/22 10:31:40;;;;;;;;;;;;;;;15.06;54.74;98998.00;5011636;28;20050;-65
2022/11/22 10:34:15;;;;;;;24.13;4.57;;;;;;;14.92;56.87;98993.16;5010024;28;19932;-65
2022/11/22 10:37:12;;;;;;;16.55;3.22;;;;;;;15.09;56.02;99000.78;5010880;28;20049;-65
2022/11/22 10:39:45;;;;;;;18.45;3.55;;;;;;;14.70;56.84;99012.75;4998277;28;20046;-65
2022/11/22 10:42:37;;;;;;;23.10;4.18;;;;;;;14.33;58.15;99018.31;5013698;28;20053;-64
2022/11/22 10:45:10;;;;;;;16.95;3.05;;;;;;;14.46;57.79;99005.75;5001492;28;20054;-64
2022/11/22 10:48:06;;;;;;;17.52;3.47;;;;;;;14.48;58.32;99009.75;5017191;28;20057;-65
2022/11/22 10:50:52;;;;;;;14.48;3.58;;;;;;;14.40;57.76;99007.31;5016851;28;20053;-66
2022/11/22 10:53:38;;;;;;;13.00;3.00;;;;;;;14.78;57.85;99009.66;5009393;28;20382;-65
2022/11/22 10:56:28;;;;;;;14.80;2.90;;;;;;;14.33;57.88;99019.09;5009185;28;20042;-65
2022/11/22 10:59:19;;;;;;;18.27;4.00;;;;;;;14.17;55.71;99015.72;5010292;28;20062;-64
2022/11/22 11:02:16;;;;;;;16.65;3.08;;;;;;;14.80;57.04;99018.38;5001428;28;20058;-65
2022/11/22 11:04:44;;;;;;;16.27;2.73;;;;;;;14.79;55.41;99024.28;5007272;28;20038;-65
2022/11/22 11:07:20;;;;;;;12.32;2.80;;;;;;;14.44;56.63;99030.28;5011078;28;20539;-65
2022/11/22 11:10:16;;;;;;;11.75;2.58;;;;;;;15.19;56.38;99021.44;4977346;28;20050;-65
2022/11/22 11:13:06;;;;;;;16.35;3.95;;;;;;;14.95;55.04;99020.09;5012121;28;20493;-67
2022/11/22 11:15:37;;;;;;;21.38;3.90;;;;;;;14.63;55.53;99036.44;5011511;28;20057;-66
2022/11/22 11:18:11;;;;;;;14.45;2.78;;;;;;;14.74;57.17;99035.72;5007261;28;20060;-64
2022/11/22 11:20:41;;;;;;;13.90;3.08;;;;;;;14.15;55.99;99029.16;5010678;28;20065;-64
2022/11/22 11:23:09;;;;;;;12.48;3.05;;;;;;;14.34;57.61;99039.28;5006880;28;20134;-65
2022/11/22 11:25:43;;;;;;;15.40;3.47;;;;;;;14.55;56.83;99033.97;5005697;28;20050;-64
2022/11/22 11:28:19;;;;;;;15.07;3.27;;;;;;;14.09;57.05;99036.19;5011453;28;20053;-65
2022/11/22 11:31:07;;;;;;;11.75;2.75;;;;;;;14.35;58.29;99035.31;5006212;28;20043;-64
2022/11/22 11:33:37;;;;;;;12.50;3.65;;;;;;;15.30;55.46;99044.53;5003410;28;20398;-65
2022/11/22 11:36:06;;;;;;;20.53;3.67;;;;;;;14.29;56.57;99050.69;5012146;28;20057;-65
2022/11/22 11:38:39;;;;;;;19.48;3.85;;;;;;;14.38;56.91;99038.13;5001757;28;20054;-66
2022/11/22 11:41:33;;;;;;;12.00;3.20;;;;;;;13.92;56.59;99041.50;5025894;28;20058;-65
2022/11/22 11:44:27;;;;;;;14.68;2.67;;;;;;;14.12;58.17;99026.34;5005665;28;20064;-65
2022/11/22 11:46:56;;;;;;;16.30;3.88;;;;;;;14.34;54.69;99026.22;5006695;28;20049;-72
2022/11/22 11:49:25;;;;;;;15.77;3.45;;;;;;;14.40;57.11;99030.25;5011154;28;20042;-69
2022/11/22 11:51:54;;;;;;;17.48;3.95;;;;;;;14.65;56.23;99027.72;5005046;28;20149;-70
2022/11/22 11:54:22;;;;;;;15.20;3.50;;;;;;;14.13;54.88;99030.69;5007684;28;20519;-69
2022/11/22 11:57:00;;;;;;;13.20;3.17;;;;;;;14.70;56.10;99035.69;5004224;28;20050;-67
2022/11/22 11:59:36;;;;;;;13.07;3.33;;;;;;;15.14;54.57;99036.50;5010293;28;20057;-67